Aviation Digital Data Service (ADDS)

Output produced by METARs form (0536 UTC 21 April 2018)
found at http://aviationweather.gov/adds/metars/
 
METAR text: KRTS 210515Z AUTO 33003KT 10SM CLR 06/M03 A3023 RMK AO2
Conditions at: KRTS (RENO/STEAD , NV, US) observed 0515 UTC 21 April 2018
Temperature: 6.0°C (43°F)
Dewpoint: -3.0°C (27°F) [RH = 52%]
Pressure (altimeter): 30.23 inches Hg (1023.8 mb)
Winds: from the NNW (330 degrees) at 3 MPH (3 knots; 1.6 m/s)
Visibility: 10 or more miles (16+ km)
Ceiling: at least 12,000 feet AGL
Clouds: sky clear below 12,000 feet AGL
Weather: automated observation with no human augmentation;
there may or may not be significant weather present at this time